Time;durP1;ratioP1;P1;durP2;ratioP2;P2;SDS_P1;SDS_P2;PMS_P1;PMS_P2;Temp;Humidity;BMP_temperature;BMP_pressure;BME280_temperature;BME280_humidity;BME280_pressure;Samples;Min_cycle;Max_cycle;Signal;HPM_P1;HPM_P2
2023/08/17 00:03:31;;;;;;;4.43;1.20;;;;;;;15.90;100.00;102202.75;10425653;28;20096;-64
2023/08/17 00:08:32;;;;;;;4.57;0.90;;;;;;;15.87;100.00;102198.53;10432420;28;20057;-67
2023/08/17 00:13:33;;;;;;;3.15;1.65;;;;;;;15.87;100.00;102195.75;10479244;28;20041;-65
2023/08/17 00:18:34;;;;;;;3.47;1.00;;;;;;;15.86;100.00;102187.72;10468075;28;20037;-65
2023/08/17 00:23:34;;;;;;;4.45;0.90;;;;;;;15.87;100.00;102189.38;10467266;28;20565;-65
2023/08/17 00:28:35;;;;;;;7.85;1.20;;;;;;;15.85;100.00;102189.63;10474971;28;20044;-65
2023/08/17 00:33:35;;;;;;;1.73;0.90;;;;;;;15.85;100.00;102188.78;10477683;28;20051;-65
2023/08/17 00:38:36;;;;;;;2.83;1.20;;;;;;;15.80;100.00;102186.78;10471066;28;20071;-65
2023/08/17 00:43:36;;;;;;;4.13;1.25;;;;;;;15.75;100.00;102189.53;10469767;28;20063;-65
2023/08/17 00:48:37;;;;;;;3.53;0.82;;;;;;;15.72;100.00;102199.19;10471472;28;20104;-64
2023/08/17 00:53:37;;;;;;;2.67;0.95;;;;;;;15.69;100.00;102190.50;10463908;28;20037;-64
2023/08/17 00:58:38;;;;;;;2.00;1.00;;;;;;;15.68;100.00;102194.38;10477678;28;25566;-65
2023/08/17 01:03:40;;;;;;;5.18;1.33;;;;;;;15.66;100.00;102185.47;10471926;28;20041;-65
2023/08/17 01:08:42;;;;;;;4.65;1.20;;;;;;;15.67;100.00;102181.59;10484286;28;20285;-65
2023/08/17 01:13:49;;;;;;;5.38;1.40;;;;;;;15.65;100.00;102179.06;10462253;28;20154;-64
2023/08/17 01:18:49;;;;;;;2.58;1.10;;;;;;;15.45;100.00;102156.59;10445388;28;20037;-65
2023/08/17 01:23:50;;;;;;;6.25;1.38;;;;;;;15.63;100.00;102169.34;10427700;28;20106;-65
2023/08/17 01:28:51;;;;;;;3.13;1.10;;;;;;;15.66;100.00;102166.03;10422686;28;20111;-65
2023/08/17 01:33:54;;;;;;;1.77;1.15;;;;;;;15.71;100.00;102166.13;10443563;28;20055;-65
2023/08/17 01:38:55;;;;;;;4.13;2.00;;;;;;;15.61;100.00;102143.78;10404289;28;20033;-65
2023/08/17 01:43:56;;;;;;;4.20;1.40;;;;;;;15.71;100.00;102143.91;10428460;28;20428;-65
2023/08/17 01:48:56;;;;;;;5.90;1.48;;;;;;;15.73;100.00;102155.63;10438405;28;20041;-65
2023/08/17 01:53:56;;;;;;;3.80;1.00;;;;;;;15.75;100.00;102147.88;10441750;28;20052;-65
2023/08/17 01:58:57;;;;;;;5.63;1.67;;;;;;;15.78;100.00;102160.41;10443586;28;20051;-65
2023/08/17 02:03:59;;;;;;;4.25;1.30;;;;;;;15.28;100.00;102087.25;10441367;28;20101;-65
2023/08/17 02:09:00;;;;;;;2.83;1.52;;;;;;;15.74;100.00;102155.34;10436570;28;20053;-65
2023/08/17 02:14:00;;;;;;;5.32;1.77;;;;;;;15.76;100.00;102163.41;10438329;28;20045;-65
2023/08/17 02:19:01;;;;;;;7.82;1.67;;;;;;;15.74;100.00;102177.56;10437577;28;20045;-65
2023/08/17 02:24:01;;;;;;;3.75;1.52;;;;;;;15.72;100.00;102176.97;10436951;28;20503;-63
2023/08/17 02:29:02;;;;;;;5.65;1.55;;;;;;;15.71;100.00;102172.50;10441502;28;20134;-65
2023/08/17 02:34:05;;;;;;;4.43;1.55;;;;;;;15.73;100.00;102163.94;10452111;28;20577;-65
2023/08/17 02:39:05;;;;;;;3.72;2.20;;;;;;;15.77;100.00;102164.25;10428011;28;20064;-65
2023/08/17 02:44:05;;;;;;;4.53;1.42;;;;;;;15.72;100.00;102151.97;10435494;28;20401;-65
2023/08/17 02:49:06;;;;;;;5.05;1.40;;;;;;;15.64;100.00;102138.50;10437069;28;20045;-66
2023/08/17 02:54:07;;;;;;;4.50;1.60;;;;;;;15.58;100.00;102131.22;10434276;28;20045;-65
2023/08/17 02:59:07;;;;;;;5.18;1.73;;;;;;;15.56;100.00;102132.59;10471190;28;20041;-65
2023/08/17 03:04:08;;;;;;;4.43;1.70;;;;;;;15.51;100.00;102128.63;10469291;28;20037;-66
2023/08/17 03:09:08;;;;;;;3.95;1.50;;;;;;;15.51;100.00;102125.03;10466052;28;20042;-65
2023/08/17 03:14:09;;;;;;;7.13;1.70;;;;;;;15.53;100.00;102132.00;10478047;28;20043;-65
2023/08/17 03:19:11;;;;;;;5.25;1.67;;;;;;;15.56;100.00;102135.34;10478366;28;20045;-64
2023/08/17 03:24:11;;;;;;;4.13;1.17;;;;;;;15.59;100.00;102141.25;10476743;28;20056;-65
2023/08/17 03:29:12;;;;;;;3.50;1.40;;;;;;;15.58;100.00;102134.00;10479546;28;20056;-66
2023/08/17 03:34:12;;;;;;;2.33;1.30;;;;;;;15.52;100.00;102130.34;10479329;28;20051;-66
2023/08/17 03:39:12;;;;;;;4.35;1.70;;;;;;;15.47;100.00;102130.25;10477657;28;20074;-65
2023/08/17 03:44:15;;;;;;;3.67;1.15;;;;;;;15.42;100.00;102130.19;10457771;28;20043;-65
2023/08/17 03:49:16;;;;;;;7.90;1.70;;;;;;;15.39;100.00;102119.59;10473909;28;20185;-66
2023/08/17 03:54:17;;;;;;;2.60;1.10;;;;;;;15.37;100.00;102110.69;10492498;28;20057;-65
2023/08/17 03:59:17;;;;;;;4.78;2.17;;;;;;;15.35;100.00;102110.09;10481862;28;20040;-66
2023/08/17 04:04:18;;;;;;;5.18;1.75;;;;;;;15.32;100.00;102107.84;10473570;28;20115;-65
2023/08/17 04:09:18;;;;;;;4.55;1.70;;;;;;;15.28;100.00;102118.63;10469042;28;20440;-65
2023/08/17 04:14:19;;;;;;;5.75;2.03;;;;;;;15.25;100.00;102118.28;10471699;28;20428;-65
2023/08/17 04:19:19;;;;;;;4.63;1.35;;;;;;;15.26;100.00;102122.75;10474630;28;20052;-65
2023/08/17 04:24:20;;;;;;;6.18;2.58;;;;;;;15.25;100.00;102124.66;10477118;28;20446;-66
2023/08/17 04:29:20;;;;;;;3.40;1.52;;;;;;;15.21;100.00;102119.88;10464199;28;20052;-65
2023/08/17 04:34:20;;;;;;;5.40;2.60;;;;;;;15.21;100.00;102117.09;10468730;28;20087;-65
2023/08/17 04:39:21;;;;;;;6.47;1.80;;;;;;;15.21;100.00;102117.09;10490064;28;20048;-66
2023/08/17 04:44:21;;;;;;;8.35;2.90;;;;;;;15.25;100.00;102129.38;10473270;28;20102;-65
2023/08/17 04:49:22;;;;;;;4.95;1.83;;;;;;;15.27;100.00;102119.69;10477164;28;20044;-65
2023/08/17 04:54:22;;;;;;;5.68;1.80;;;;;;;15.32;100.00;102127.28;10471483;28;20040;-65
2023/08/17 04:59:23;;;;;;;11.05;1.48;;;;;;;15.32;100.00;102124.50;10472599;28;20115;-65
2023/08/17 05:04:23;;;;;;;6.00;1.95;;;;;;;15.29;100.00;102119.44;10475413;28;20043;-65
2023/08/17 05:09:24;;;;;;;4.85;1.48;;;;;;;15.26;100.00;102118.03;10472280;28;20094;-65
2023/08/17 05:14:24;;;;;;;4.18;1.80;;;;;;;15.17;100.00;102115.94;10488729;28;20049;-65
2023/08/17 05:19:25;;;;;;;4.47;1.63;;;;;;;15.21;100.00;102125.44;10455175;28;20044;-65
2023/08/17 05:24:25;;;;;;;8.73;1.60;;;;;;;15.17;100.00;102119.53;10455031;28;20037;-65
2023/08/17 05:29:26;;;;;;;5.40;2.28;;;;;;;15.13;100.00;102119.22;10452588;28;20074;-65
2023/08/17 05:34:26;;;;;;;4.40;1.35;;;;;;;15.11;100.00;102106.69;10450682;28;20478;-64
2023/08/17 05:39:27;;;;;;;9.05;1.83;;;;;;;15.06;100.00;102110.25;10453702;28;20048;-65
2023/08/17 05:44:27;;;;;;;6.28;1.65;;;;;;;15.10;100.00;102116.97;10451864;28;20037;-65
2023/08/17 05:49:28;;;;;;;5.10;2.08;;;;;;;15.14;100.00;102120.91;10452766;28;20037;-65
2023/08/17 05:54:28;;;;;;;10.18;4.20;;;;;;;15.23;100.00;102115.75;10459787;28;20037;-66
2023/08/17 05:59:29;;;;;;;4.13;1.98;;;;;;;15.39;100.00;102125.13;10437702;28;20571;-65
2023/08/17 06:04:29;;;;;;;3.58;2.15;;;;;;;15.52;100.00;102119.22;10442290;28;20044;-66
2023/08/17 06:09:29;;;;;;;4.07;1.23;;;;;;;15.83;100.00;102125.19;10435517;28;20049;-64
2023/08/17 06:14:30;;;;;;;6.03;1.10;;;;;;;16.13;100.00;102134.97;10433903;28;20037;-65
2023/08/17 06:19:30;;;;;;;6.68;1.20;;;;;;;16.36;100.00;102138.56;10443383;28;20037;-64
2023/08/17 06:24:31;;;;;;;2.83;1.00;;;;;;;16.43;100.00;102141.94;10435066;28;20144;-65
2023/08/17 06:29:31;;;;;;;9.45;1.20;;;;;;;16.48;100.00;102148.41;10439884;28;20044;-64
2023/08/17 06:34:32;;;;;;;2.92;1.23;;;;;;;16.52;100.00;102144.00;10437504;28;20042;-65
2023/08/17 06:39:32;;;;;;;3.83;1.00;;;;;;;16.51;100.00;102141.47;10433188;28;20119;-65
2023/08/17 06:44:33;;;;;;;5.10;1.80;;;;;;;16.55;100.00;102142.63;10433331;28;20393;-65
2023/08/17 06:49:34;;;;;;;8.30;1.00;;;;;;;16.58;100.00;102153.22;10424034;28;20095;-66
2023/08/17 06:54:35;;;;;;;4.13;1.05;;;;;;;16.68;100.00;102169.13;10460560;28;20036;-64
2023/08/17 06:59:36;;;;;;;2.50;0.80;;;;;;;16.73;100.00;102158.09;10459989;28;20041;-65
2023/08/17 07:04:36;;;;;;;4.47;0.85;;;;;;;16.91;100.00;102157.72;10467670;28;20079;-65
2023/08/17 07:09:37;;;;;;;4.50;0.68;;;;;;;16.94;100.00;102157.16;10467352;28;20075;-66
2023/08/17 07:14:37;;;;;;;1.58;0.73;;;;;;;17.04;100.00;102161.16;10460636;28;20037;-65
2023/08/17 07:19:37;;;;;;;2.10;0.85;;;;;;;17.15;100.00;102149.81;10467553;28;20037;-65
2023/08/17 07:24:38;;;;;;;1.95;0.80;;;;;;;17.25;100.00;102148.22;10462625;28;20071;-64
2023/08/17 07:29:38;;;;;;;4.85;1.83;;;;;;;17.44;100.00;102138.28;10475266;28;20082;-65
2023/08/17 07:34:39;;;;;;;2.08;0.80;;;;;;;17.75;100.00;102153.22;10455657;28;20706;-65
2023/08/17 07:39:39;;;;;;;6.80;0.70;;;;;;;17.72;100.00;102161.28;10470201;28;20053;-66
2023/08/17 07:44:40;;;;;;;4.32;0.90;;;;;;;17.71;100.00;102149.31;10471047;28;20045;-65
2023/08/17 07:49:40;;;;;;;2.90;0.70;;;;;;;17.48;100.00;102160.88;10478271;28;20071;-65
2023/08/17 07:54:41;;;;;;;1.27;0.52;;;;;;;17.43;100.00;102158.91;10474925;28;20048;-66
2023/08/17 07:59:41;;;;;;;2.13;0.50;;;;;;;17.26;100.00;102166.56;10477291;28;20472;-64
2023/08/17 08:04:42;;;;;;;5.40;1.00;;;;;;;17.22;100.00;102165.44;10472716;28;20040;-64
2023/08/17 08:09:42;;;;;;;2.83;0.70;;;;;;;17.38;100.00;102170.00;10456807;28;20041;-64
2023/08/17 08:14:43;;;;;;;3.13;0.82;;;;;;;17.69;100.00;102172.97;10477100;28;20390;-64
2023/08/17 08:19:43;;;;;;;2.80;0.60;;;;;;;17.87;100.00;102168.91;10472329;28;20060;-64
2023/08/17 08:24:43;;;;;;;1.48;0.70;;;;;;;18.15;100.00;102165.66;10470888;28;20171;-66
2023/08/17 08:29:44;;;;;;;1.70;0.60;;;;;;;18.59;100.00;102167.16;10465512;28;20048;-64
2023/08/17 08:34:45;;;;;;;2.38;0.80;;;;;;;18.86;100.00;102166.09;10447443;28;20037;-65
2023/08/17 08:39:52;;;;;;;1.45;0.88;;;;;;;19.11;100.00;102149.31;10461572;28;20036;-65
2023/08/17 08:44:52;;;;;;;3.30;0.70;;;;;;;19.15;100.00;102161.59;10474019;28;20037;-64
2023/08/17 08:50:03;;;;;;;4.55;0.50;;;;;;;18.84;100.00;102155.19;10472196;28;20033;-65
2023/08/17 08:55:12;;;;;;;5.68;1.13;;;;;;;18.46;100.00;102153.72;10453158;28;20067;-65
2023/08/17 09:00:13;;;;;;;0.70;0.45;;;;;;;18.34;100.00;102152.03;10463646;28;20033;-65
2023/08/17 09:05:14;;;;;;;3.15;0.80;;;;;;;18.46;100.00;102146.22;10468652;28;20052;-64
2023/08/17 09:10:16;;;;;;;3.42;1.00;;;;;;;18.64;100.00;102133.66;10453446;28;20041;-65
2023/08/17 09:15:17;;;;;;;2.33;0.70;;;;;;;18.78;100.00;102136.75;10467395;28;20083;-64
2023/08/17 09:20:37;;;;;;;1.10;0.80;;;;;;;18.91;100.00;102132.59;10466059;28;20064;-65
2023/08/17 09:25:38;;;;;;;4.57;0.90;;;;;;;19.18;100.00;102131.44;10468873;28;20091;-65
2023/08/17 09:30:57;;;;;;;2.72;0.80;;;;;;;19.71;100.00;102118.72;10479531;28;20057;-65
2023/08/17 09:35:58;;;;;;;2.17;0.60;;;;;;;19.99;100.00;102124.75;10454322;28;20064;-65
2023/08/17 09:40:59;;;;;;;5.82;1.92;;;;;;;20.01;100.00;102118.84;10462089;28;20416;-65
2023/08/17 09:46:01;;;;;;;1.38;0.73;;;;;;;20.09;100.00;102113.53;10458513;28;20037;-65
2023/08/17 09:51:02;;;;;;;3.90;0.90;;;;;;;20.15;100.00;102105.91;10442660;28;20037;-66
2023/08/17 09:56:03;;;;;;;6.00;0.75;;;;;;;20.54;100.00;102110.69;10461548;28;20453;-65
2023/08/17 10:01:05;;;;;;;3.60;0.80;;;;;;;20.64;100.00;102093.84;10441904;28;20052;-65
2023/08/17 10:06:06;;;;;;;6.90;0.70;;;;;;;20.83;100.00;102093.13;10429074;28;20033;-65
2023/08/17 10:11:08;;;;;;;3.50;0.82;;;;;;;21.01;100.00;102083.16;10441312;28;20044;-66
2023/08/17 10:16:18;;;;;;;3.33;1.63;;;;;;;21.38;100.00;102082.47;10440793;28;20130;-65
2023/08/17 10:21:42;;;;;;;2.65;0.93;;;;;;;21.36;100.00;102076.31;10437864;28;20064;-66
2023/08/17 10:26:42;;;;;;;3.35;1.00;;;;;;;21.00;100.00;102073.94;10405486;28;20052;-65
2023/08/17 10:31:46;;;;;;;2.65;0.85;;;;;;;21.13;100.00;102064.81;10417764;28;20480;-66
2023/08/17 10:36:46;;;;;;;3.20;0.80;;;;;;;20.87;100.00;102066.22;10435495;28;20419;-65
2023/08/17 10:41:48;;;;;;;4.22;1.00;;;;;;;20.66;100.00;102086.00;10435652;28;20057;-65
2023/08/17 10:46:48;;;;;;;4.20;0.93;;;;;;;20.58;100.00;102077.38;10416668;28;20041;-65
2023/08/17 10:52:05;;;;;;;4.18;1.10;;;;;;;20.90;100.00;102080.47;10440915;28;20044;-65
2023/08/17 10:57:41;;;;;;;6.78;1.17;;;;;;;20.94;100.00;102066.72;10438194;28;20048;-65
2023/08/17 11:02:50;;;;;;;5.70;1.23;;;;;;;20.79;100.00;102069.66;10431830;28;20074;-66
2023/08/17 11:07:51;;;;;;;4.00;1.00;;;;;;;21.02;100.00;102082.00;10416597;28;20048;-65
2023/08/17 11:12:56;;;;;;;3.80;1.25;;;;;;;21.06;100.00;102069.09;10442486;28;20230;-66
2023/08/17 11:17:57;;;;;;;2.42;0.90;;;;;;;21.16;100.00;102078.19;10472385;28;20049;-65
2023/08/17 11:22:59;;;;;;;3.30;1.10;;;;;;;21.64;100.00;102065.34;10459385;28;20040;-65
2023/08/17 11:28:00;;;;;;;4.97;2.35;;;;;;;22.02;100.00;102051.38;10458176;28;20069;-65
2023/08/17 11:33:00;;;;;;;4.57;1.13;;;;;;;22.12;100.00;102054.03;10470939;28;20037;-66
2023/08/17 11:38:00;;;;;;;5.28;1.10;;;;;;;22.45;100.00;102042.84;10476372;28;20037;-66
2023/08/17 11:43:01;;;;;;;1.90;0.90;;;;;;;23.31;100.00;102039.56;10469337;28;20056;-66
2023/08/17 11:48:03;;;;;;;4.70;1.20;;;;;;;23.59;100.00;102034.75;10474011;28;20039;-66
2023/08/17 11:53:04;;;;;;;2.30;1.05;;;;;;;23.64;100.00;102022.56;10460161;28;20041;-66
2023/08/17 11:58:04;;;;;;;3.70;0.77;;;;;;;24.05;100.00;102030.09;10473418;28;20077;-65
2023/08/17 12:03:05;;;;;;;1.27;0.90;;;;;;;23.48;100.00;102022.91;10473759;28;20029;-67
2023/08/17 12:08:07;;;;;;;3.17;1.10;;;;;;;22.68;100.00;102024.22;10477859;28;20046;-66
2023/08/17 12:13:11;;;;;;;2.25;0.93;;;;;;;22.54;100.00;102025.00;10454532;28;20486;-66
2023/08/17 12:18:12;;;;;;;2.45;0.95;;;;;;;23.14;100.00;102026.16;10475767;28;20767;-66
2023/08/17 12:23:12;;;;;;;2.00;1.00;;;;;;;23.49;100.00;102018.94;10474956;28;20037;-65
2023/08/17 12:28:14;;;;;;;2.92;1.13;;;;;;;22.94;100.00;102027.34;10474754;28;20115;-65
2023/08/17 12:33:14;;;;;;;2.65;1.02;;;;;;;22.30;100.00;102030.75;10476051;28;20456;-67
2023/08/17 12:38:15;;;;;;;3.50;1.40;;;;;;;21.88;100.00;102040.91;10477175;28;20037;-65
2023/08/17 12:43:15;;;;;;;3.60;1.30;;;;;;;21.39;100.00;102044.88;10471585;28;20091;-67
2023/08/17 12:48:16;;;;;;;1.92;1.15;;;;;;;21.22;100.00;102036.97;10474500;28;20099;-67
2023/08/17 12:53:16;;;;;;;3.88;1.48;;;;;;;21.09;100.00;102041.34;10478170;28;20041;-66
2023/08/17 12:58:17;;;;;;;2.70;1.00;;;;;;;21.14;100.00;102037.63;10471813;28;20111;-65
2023/08/17 13:03:17;;;;;;;5.97;1.85;;;;;;;21.04;100.00;102038.56;10481335;28;20037;-70
2023/08/17 13:08:18;;;;;;;4.47;1.55;;;;;;;20.82;100.00;102046.69;10480699;28;20037;-71
2023/08/17 13:13:18;;;;;;;3.15;1.15;;;;;;;20.60;100.00;102053.59;10477693;28;20056;-70
2023/08/17 13:18:18;;;;;;;6.10;1.88;;;;;;;20.37;100.00;102052.34;10479196;28;20057;-71
2023/08/17 13:23:19;;;;;;;2.38;1.55;;;;;;;20.22;100.00;102049.69;10476636;28;20037;-66
2023/08/17 13:28:19;;;;;;;2.17;1.35;;;;;;;20.26;100.00;102051.63;10482372;28;20487;-70
2023/08/17 13:33:20;;;;;;;4.78;1.40;;;;;;;20.29;100.00;102066.97;10496588;28;20566;-68
2023/08/17 13:38:20;;;;;;;3.15;1.27;;;;;;;20.34;100.00;102052.97;10469049;28;20401;-68
2023/08/17 13:43:21;;;;;;;3.78;1.40;;;;;;;20.46;100.00;102042.19;10481020;28;20484;-68
2023/08/17 13:48:21;;;;;;;6.47;2.28;;;;;;;20.36;100.00;102057.13;10478786;28;20038;-68
2023/08/17 13:53:22;;;;;;;5.97;2.40;;;;;;;20.16;100.00;102052.50;10481490;28;20114;-68
2023/08/17 13:58:22;;;;;;;4.40;2.05;;;;;;;20.14;100.00;102059.53;10482146;28;20051;-68
2023/08/17 14:03:24;;;;;;;2.83;1.60;;;;;;;20.13;100.00;102069.03;10480801;28;20032;-68
2023/08/17 14:08:24;;;;;;;6.32;1.70;;;;;;;20.16;100.00;102055.31;10484628;28;20041;-69
2023/08/17 14:13:24;;;;;;;4.20;2.35;;;;;;;20.28;100.00;102043.75;10466439;28;20040;-69
2023/08/17 14:18:25;;;;;;;5.20;2.53;;;;;;;20.43;100.00;102039.19;10474908;28;20049;-71
2023/08/17 14:23:26;;;;;;;3.13;2.10;;;;;;;20.39;100.00;102035.28;10482167;28;20055;-69
2023/08/17 14:28:26;;;;;;;3.97;1.98;;;;;;;20.42;100.00;102043.09;10464046;28;20037;-70
2023/08/17 14:33:27;;;;;;;4.28;2.35;;;;;;;20.46;100.00;102044.16;10472942;28;20052;-68
2023/08/17 14:38:27;;;;;;;5.47;2.58;;;;;;;20.40;100.00;102048.13;10468892;28;20041;-69
2023/08/17 14:43:27;;;;;;;3.53;2.55;;;;;;;20.31;100.00;102048.75;10477841;28;20032;-70
2023/08/17 14:48:28;;;;;;;5.03;2.92;;;;;;;20.17;100.00;102042.16;10479356;28;20066;-69
2023/08/17 14:53:28;;;;;;;5.40;3.03;;;;;;;20.04;100.00;102054.00;10478785;28;20045;-69
2023/08/17 14:58:29;;;;;;;5.43;3.65;;;;;;;19.95;100.00;102046.22;10484432;28;20045;-66
2023/08/17 15:03:29;;;;;;;6.00;4.57;;;;;;;19.90;100.00;102043.47;10469997;28;20040;-68
2023/08/17 15:08:30;;;;;;;6.13;4.28;;;;;;;19.93;100.00;102036.47;10479139;28;20470;-68
2023/08/17 15:13:31;;;;;;;6.03;3.60;;;;;;;19.92;100.00;102024.44;10480992;28;22131;-70
2023/08/17 15:18:31;;;;;;;7.07;4.47;;;;;;;19.95;100.00;102017.47;10463550;28;20072;-70
2023/08/17 15:23:32;;;;;;;7.40;4.88;;;;;;;20.09;100.00;102029.66;10449625;28;20171;-70
2023/08/17 15:28:32;;;;;;;5.95;4.53;;;;;;;19.89;100.00;102016.66;10470149;28;20045;-68
2023/08/17 15:33:33;;;;;;;6.30;4.20;;;;;;;19.82;100.00;102032.88;10463913;28;20041;-69
2023/08/17 15:38:33;;;;;;;6.78;4.00;;;;;;;19.74;100.00;102025.97;10471456;28;20040;-71
2023/08/17 15:43:34;;;;;;;5.43;4.20;;;;;;;19.68;100.00;102029.88;10454574;28;20037;-70
2023/08/17 15:48:34;;;;;;;6.38;2.92;;;;;;;19.67;100.00;102028.19;10471658;28;20592;-66
2023/08/17 15:53:38;;;;;;;6.35;3.17;;;;;;;19.61;100.00;102017.34;10477917;28;20033;-66
2023/08/17 15:58:40;;;;;;;11.77;3.85;;;;;;;19.52;100.00;102015.16;10477928;28;20037;-66
2023/08/17 16:03:41;;;;;;;6.68;2.58;;;;;;;19.53;100.00;102010.41;10474363;28;20602;-66
2023/08/17 16:08:44;;;;;;;3.28;2.75;;;;;;;19.66;100.00;102003.38;10478226;28;20050;-66
2023/08/17 16:13:45;;;;;;;4.13;1.85;;;;;;;19.68;100.00;101989.94;10476607;28;20059;-65
2023/08/17 16:18:45;;;;;;;9.45;3.33;;;;;;;19.68;100.00;101987.97;10476750;28;20045;-66
2023/08/17 16:23:45;;;;;;;4.13;2.30;;;;;;;19.67;100.00;101982.66;10474084;28;20033;-66
2023/08/17 16:28:46;;;;;;;6.82;2.50;;;;;;;19.66;100.00;101987.44;10480491;28;20052;-65
2023/08/17 16:33:46;;;;;;;6.65;2.90;;;;;;;19.56;100.00;101995.88;10469572;28;20042;-65
2023/08/17 16:38:47;;;;;;;3.42;2.70;;;;;;;19.52;100.00;101990.00;10461268;28;20044;-66
2023/08/17 16:43:47;;;;;;;4.32;2.38;;;;;;;19.63;100.00;101976.00;10469851;28;20087;-64
2023/08/17 16:48:48;;;;;;;5.70;2.60;;;;;;;19.72;100.00;101979.84;10461384;28;20114;-65
2023/08/17 16:53:49;;;;;;;4.72;2.60;;;;;;;19.93;100.00;101978.59;10476830;28;20040;-65
2023/08/17 16:58:50;;;;;;;8.50;3.10;;;;;;;19.76;100.00;101983.75;10473935;28;20041;-65
2023/08/17 17:03:51;;;;;;;3.83;3.03;;;;;;;19.64;100.00;101978.50;10476038;28;20104;-66
2023/08/17 17:08:53;;;;;;;4.47;3.50;;;;;;;19.48;100.00;101974.13;10472893;28;20028;-65
2023/08/17 17:13:53;;;;;;;5.15;3.22;;;;;;;19.26;100.00;101943.81;10465019;28;20036;-65
2023/08/17 17:18:54;;;;;;;4.95;3.28;;;;;;;19.33;100.00;101966.69;10458785;28;20037;-65
2023/08/17 17:23:54;;;;;;;4.47;2.67;;;;;;;19.22;100.00;101977.03;10475012;28;20048;-65
2023/08/17 17:28:55;;;;;;;5.60;2.53;;;;;;;19.26;100.00;101978.13;10482937;28;20416;-66
2023/08/17 17:33:55;;;;;;;7.78;2.63;;;;;;;19.07;100.00;101968.75;10470483;28;20567;-66
2023/08/17 17:38:56;;;;;;;3.05;2.40;;;;;;;18.84;100.00;101970.22;10476060;28;20466;-66
2023/08/17 17:43:56;;;;;;;5.50;2.90;;;;;;;18.56;100.00;101961.31;10471654;28;20044;-67
2023/08/17 17:48:58;;;;;;;3.17;2.55;;;;;;;18.38;100.00;101970.28;10478622;28;20055;-65
2023/08/17 17:53:58;;;;;;;3.08;2.55;;;;;;;18.30;100.00;101983.66;10444667;28;20045;-65
2023/08/17 17:58:59;;;;;;;5.13;2.20;;;;;;;18.20;100.00;101991.19;10446972;28;20476;-66
2023/08/17 18:03:59;;;;;;;3.88;2.28;;;;;;;18.20;100.00;101989.25;10441166;28;20045;-66
2023/08/17 18:09:00;;;;;;;4.32;2.30;;;;;;;18.14;100.00;101982.00;10443156;28;20029;-65
2023/08/17 18:14:01;;;;;;;2.88;2.22;;;;;;;18.19;100.00;101995.09;10438570;28;20041;-65
2023/08/17 18:19:02;;;;;;;3.58;2.22;;;;;;;18.17;100.00;101992.59;10433664;28;20098;-65
2023/08/17 18:24:02;;;;;;;4.35;2.28;;;;;;;18.02;100.00;102000.94;10436856;28;20102;-65
2023/08/17 18:29:03;;;;;;;2.72;1.58;;;;;;;17.97;100.00;102000.94;10441697;28;20056;-66
2023/08/17 18:34:03;;;;;;;2.35;1.23;;;;;;;17.90;100.00;101996.47;10442195;28;20527;-65
2023/08/17 18:39:05;;;;;;;3.22;1.70;;;;;;;17.76;100.00;101998.09;10441170;28;20440;-65
2023/08/17 18:44:05;;;;;;;2.20;1.27;;;;;;;17.62;100.00;102005.28;10428291;28;20041;-66
2023/08/17 18:49:06;;;;;;;2.33;1.70;;;;;;;17.44;100.00;102010.22;10433975;28;20096;-65
2023/08/17 18:54:06;;;;;;;2.20;1.58;;;;;;;17.34;100.00;102004.63;10439810;28;20619;-66
2023/08/17 18:59:07;;;;;;;2.67;1.60;;;;;;;17.27;100.00;102002.09;10440298;28;20049;-65
2023/08/17 19:04:07;;;;;;;2.40;1.40;;;;;;;17.29;100.00;102004.63;10444658;28;20128;-65
2023/08/17 19:09:08;;;;;;;2.55;1.40;;;;;;;17.24;100.00;102015.72;10439068;28;20048;-65
2023/08/17 19:14:08;;;;;;;6.70;2.75;;;;;;;17.23;100.00;102014.06;10437011;28;20497;-65
2023/08/17 19:19:09;;;;;;;2.42;1.60;;;;;;;17.20;100.00;102022.94;10437109;28;20045;-65
2023/08/17 19:24:10;;;;;;;2.22;1.63;;;;;;;17.22;100.00;102034.63;10417653;28;20037;-65
2023/08/17 19:29:10;;;;;;;3.10;1.80;;;;;;;17.19;100.00;102026.84;10438829;28;20041;-65
2023/08/17 19:34:11;;;;;;;3.25;1.42;;;;;;;17.18;100.00;102030.72;10433771;28;20037;-65
2023/08/17 19:39:11;;;;;;;1.80;1.13;;;;;;;17.11;100.00;102017.06;10439764;28;20044;-66
2023/08/17 19:44:12;;;;;;;1.40;0.90;;;;;;;17.11;100.00;102039.31;10436764;28;20063;-67
2023/08/17 19:49:13;;;;;;;5.72;0.90;;;;;;;16.99;100.00;102014.50;10437936;28;20041;-65
2023/08/17 19:54:13;;;;;;;1.65;0.98;;;;;;;17.00;100.00;102016.16;10437845;28;20049;-66
2023/08/17 19:59:13;;;;;;;2.05;1.08;;;;;;;17.02;100.00;102013.97;10423524;28;20044;-66
2023/08/17 20:04:14;;;;;;;0.93;0.70;;;;;;;16.75;100.00;101975.94;10439096;28;20029;-66
2023/08/17 20:09:15;;;;;;;1.77;0.68;;;;;;;16.99;100.00;102014.50;10442082;28;20037;-67
2023/08/17 20:14:15;;;;;;;1.58;0.68;;;;;;;16.98;100.00;102018.38;10452157;28;20037;-66
2023/08/17 20:19:16;;;;;;;2.35;0.70;;;;;;;16.94;100.00;102014.47;10425755;28;20037;-67
2023/08/17 20:24:16;;;;;;;1.60;0.70;;;;;;;16.93;100.00;102012.81;10430619;28;20037;-66
2023/08/17 20:29:17;;;;;;;0.90;0.57;;;;;;;16.90;100.00;102018.88;10443015;28;20980;-65
2023/08/17 20:34:17;;;;;;;1.45;0.70;;;;;;;16.87;100.00;102016.66;10426815;28;20049;-67
2023/08/17 20:39:18;;;;;;;1.58;0.80;;;;;;;16.83;100.00;102021.09;10422642;28;20045;-65
2023/08/17 20:44:20;;;;;;;1.58;0.82;;;;;;;16.79;100.00;102019.91;10426252;28;20041;-66
2023/08/17 20:49:20;;;;;;;2.55;0.82;;;;;;;16.77;100.00;102027.69;10439109;28;20067;-65
2023/08/17 20:54:21;;;;;;;1.48;0.77;;;;;;;16.74;100.00;102029.03;10428816;28;20056;-66
2023/08/17 20:59:21;;;;;;;1.45;0.60;;;;;;;16.73;100.00;102025.44;10424173;28;20424;-65
2023/08/17 21:04:22;;;;;;;2.28;0.93;;;;;;;16.70;100.00;102031.53;10432915;28;20519;-65
2023/08/17 21:09:22;;;;;;;2.72;0.60;;;;;;;16.70;100.00;102022.34;10427701;28;20090;-66
2023/08/17 21:14:23;;;;;;;0.88;0.50;;;;;;;16.67;100.00;102020.09;10431497;28;20114;-66
2023/08/17 21:19:23;;;;;;;2.00;0.50;;;;;;;16.67;100.00;102026.50;10442624;28;20053;-66
2023/08/17 21:24:24;;;;;;;0.95;0.63;;;;;;;16.65;100.00;102025.09;10422014;28;20169;-65
2023/08/17 21:29:24;;;;;;;2.88;0.80;;;;;;;16.59;100.00;102027.00;10441530;28;20044;-66
2023/08/17 21:34:25;;;;;;;2.28;0.98;;;;;;;16.57;100.00;102029.22;10442742;28;20067;-65
2023/08/17 21:39:25;;;;;;;1.38;0.70;;;;;;;16.54;100.00;102035.31;10424326;28;20048;-65
2023/08/17 21:44:26;;;;;;;0.80;0.60;;;;;;;16.53;100.00;102030.84;10425258;28;20037;-65
2023/08/17 21:49:26;;;;;;;1.13;0.60;;;;;;;16.53;100.00;102022.50;10444407;28;20041;-65
2023/08/17 21:54:27;;;;;;;1.40;0.60;;;;;;;16.51;100.00;102030.28;10440483;28;20037;-65
2023/08/17 21:59:27;;;;;;;2.17;0.70;;;;;;;16.51;100.00;102017.19;10440946;28;20049;-65
2023/08/17 22:04:32;;;;;;;2.03;0.93;;;;;;;16.50;100.00;102023.88;10439490;28;20548;-64
2023/08/17 22:09:33;;;;;;;1.15;0.60;;;;;;;16.52;100.00;102020.84;10487225;28;20045;-64
2023/08/17 22:14:33;;;;;;;3.08;0.70;;;;;;;16.52;100.00;102026.41;10481829;28;20060;-64
2023/08/17 22:19:34;;;;;;;1.20;0.80;;;;;;;16.50;100.00;102025.84;10474402;28;20373;-65
2023/08/17 22:24:38;;;;;;;2.45;1.00;;;;;;;16.45;100.00;102020.22;10481963;28;20043;-65
2023/08/17 22:29:38;;;;;;;2.72;1.17;;;;;;;16.50;100.00;102034.16;10467054;28;20041;-65
2023/08/17 22:34:39;;;;;;;1.35;0.70;;;;;;;16.48;100.00;102026.09;10475756;28;20036;-65
2023/08/17 22:39:40;;;;;;;1.90;0.80;;;;;;;16.42;100.00;102004.09;10484002;28;20110;-65
2023/08/17 22:44:41;;;;;;;1.10;0.60;;;;;;;16.47;100.00;102004.94;10478244;28;20094;-65
2023/08/17 22:49:41;;;;;;;3.03;0.80;;;;;;;16.47;100.00;102002.16;10475376;28;20124;-64